sensor_id;sensor_type;location;lat;lon;timestamp;P1;durP1;ratioP1;P2;durP2;ratioP2
44248;SDS011;29923;48.718;9.272;2023-02-28T00:00:17;4.13;;;2.30;;
44248;SDS011;29923;48.718;9.272;2023-02-28T00:02:43;5.88;;;2.83;;
44248;SDS011;29923;48.718;9.272;2023-02-28T00:05:09;5.15;;;2.42;;
44248;SDS011;29923;48.718;9.272;2023-02-28T00:07:35;5.30;;;2.78;;
44248;SDS011;29923;48.718;9.272;2023-02-28T00:10:01;6.45;;;2.90;;
44248;SDS011;29923;48.718;9.272;2023-02-28T00:12:28;6.93;;;2.53;;
44248;SDS011;29923;48.718;9.272;2023-02-28T00:14:53;5.10;;;2.45;;
44248;SDS011;29923;48.718;9.272;2023-02-28T00:17:19;6.43;;;2.70;;
44248;SDS011;29923;48.718;9.272;2023-02-28T00:19:48;5.38;;;2.70;;
44248;SDS011;29923;48.718;9.272;2023-02-28T00:22:16;4.82;;;2.60;;
44248;SDS011;29923;48.718;9.272;2023-02-28T00:24:41;6.22;;;2.63;;
44248;SDS011;29923;48.718;9.272;2023-02-28T00:27:07;5.13;;;2.60;;
44248;SDS011;29923;48.718;9.272;2023-02-28T00:29:32;6.88;;;2.78;;
44248;SDS011;29923;48.718;9.272;2023-02-28T00:31:57;5.30;;;2.70;;
44248;SDS011;29923;48.718;9.272;2023-02-28T00:34:23;4.10;;;2.35;;
44248;SDS011;29923;48.718;9.272;2023-02-28T00:36:48;4.40;;;2.47;;
44248;SDS011;29923;48.718;9.272;2023-02-28T00:39:14;5.05;;;2.90;;
44248;SDS011;29923;48.718;9.272;2023-02-28T00:41:39;5.00;;;2.20;;
44248;SDS011;29923;48.718;9.272;2023-02-28T00:44:04;6.65;;;2.60;;
44248;SDS011;29923;48.718;9.272;2023-02-28T00:46:30;4.90;;;2.67;;
44248;SDS011;29923;48.718;9.272;2023-02-28T00:48:55;5.00;;;2.67;;
44248;SDS011;29923;48.718;9.272;2023-02-28T00:51:20;6.93;;;2.88;;
44248;SDS011;29923;48.718;9.272;2023-02-28T00:53:46;6.95;;;2.88;;
44248;SDS011;29923;48.718;9.272;2023-02-28T00:56:11;4.18;;;2.40;;
44248;SDS011;29923;48.718;9.272;2023-02-28T00:58:36;13.05;;;3.00;;
44248;SDS011;29923;48.718;9.272;2023-02-28T01:01:02;6.65;;;3.03;;
44248;SDS011;29923;48.718;9.272;2023-02-28T01:03:27;6.70;;;2.83;;
44248;SDS011;29923;48.718;9.272;2023-02-28T01:05:52;4.68;;;2.63;;
44248;SDS011;29923;48.718;9.272;2023-02-28T01:08:18;6.68;;;3.15;;
44248;SDS011;29923;48.718;9.272;2023-02-28T01:10:43;6.43;;;3.28;;
44248;SDS011;29923;48.718;9.272;2023-02-28T01:13:09;9.35;;;3.00;;
44248;SDS011;29923;48.718;9.272;2023-02-28T01:15:34;4.90;;;2.83;;
44248;SDS011;29923;48.718;9.272;2023-02-28T01:17:59;5.28;;;2.95;;
44248;SDS011;29923;48.718;9.272;2023-02-28T01:20:25;5.07;;;2.40;;
44248;SDS011;29923;48.718;9.272;2023-02-28T01:22:50;6.15;;;2.75;;
44248;SDS011;29923;48.718;9.272;2023-02-28T01:25:15;6.07;;;2.88;;
44248;SDS011;29923;48.718;9.272;2023-02-28T01:27:40;4.72;;;2.60;;
44248;SDS011;29923;48.718;9.272;2023-02-28T01:30:07;4.95;;;2.85;;
44248;SDS011;29923;48.718;9.272;2023-02-28T01:32:33;5.70;;;3.45;;
44248;SDS011;29923;48.718;9.272;2023-02-28T01:34:58;5.72;;;3.05;;
44248;SDS011;29923;48.718;9.272;2023-02-28T01:37:23;5.10;;;2.63;;
44248;SDS011;29923;48.718;9.272;2023-02-28T01:39:49;10.43;;;2.88;;
44248;SDS011;29923;48.718;9.272;2023-02-28T01:42:14;7.25;;;3.30;;
44248;SDS011;29923;48.718;9.272;2023-02-28T01:47:32;6.25;;;2.88;;
44248;SDS011;29923;48.718;9.272;2023-02-28T01:50:00;15.35;;;3.20;;
44248;SDS011;29923;48.718;9.272;2023-02-28T01:52:27;13.77;;;3.95;;
44248;SDS011;29923;48.718;9.272;2023-02-28T01:54:56;7.93;;;3.33;;
44248;SDS011;29923;48.718;9.272;2023-02-28T01:57:27;8.10;;;3.25;;
44248;SDS011;29923;48.718;9.272;2023-02-28T01:59:56;8.00;;;3.35;;
44248;SDS011;29923;48.718;9.272;2023-02-28T02:02:26;8.88;;;3.40;;
44248;SDS011;29923;48.718;9.272;2023-02-28T02:07:26;6.40;;;2.92;;
44248;SDS011;29923;48.718;9.272;2023-02-28T02:12:47;8.88;;;3.00;;
44248;SDS011;29923;48.718;9.272;2023-02-28T02:15:37;7.78;;;3.40;;
44248;SDS011;29923;48.718;9.272;2023-02-28T02:46:43;5.95;;;3.33;;
44248;SDS011;29923;48.718;9.272;2023-02-28T02:49:10;10.25;;;3.40;;
44248;SDS011;29923;48.718;9.272;2023-02-28T02:51:40;8.00;;;3.55;;
44248;SDS011;29923;48.718;9.272;2023-02-28T02:54:14;9.88;;;4.20;;
44248;SDS011;29923;48.718;9.272;2023-02-28T02:56:42;9.35;;;4.60;;
44248;SDS011;29923;48.718;9.272;2023-02-28T02:59:11;8.35;;;3.25;;
44248;SDS011;29923;48.718;9.272;2023-02-28T03:01:38;6.80;;;3.70;;
44248;SDS011;29923;48.718;9.272;2023-02-28T03:04:10;5.80;;;3.65;;
44248;SDS011;29923;48.718;9.272;2023-02-28T03:06:37;8.52;;;4.20;;
44248;SDS011;29923;48.718;9.272;2023-02-28T03:09:03;10.32;;;4.15;;
44248;SDS011;29923;48.718;9.272;2023-02-28T03:11:29;8.82;;;3.58;;
44248;SDS011;29923;48.718;9.272;2023-02-28T03:14:01;9.07;;;4.10;;
44248;SDS011;29923;48.718;9.272;2023-02-28T03:19:04;7.38;;;3.95;;
44248;SDS011;29923;48.718;9.272;2023-02-28T03:21:45;8.23;;;3.67;;
44248;SDS011;29923;48.718;9.272;2023-02-28T03:24:16;9.65;;;4.28;;
44248;SDS011;29923;48.718;9.272;2023-02-28T03:26:45;6.53;;;3.95;;
44248;SDS011;29923;48.718;9.272;2023-02-28T03:29:18;9.98;;;3.90;;
44248;SDS011;29923;48.718;9.272;2023-02-28T03:31:50;9.55;;;3.53;;
44248;SDS011;29923;48.718;9.272;2023-02-28T03:34:26;7.65;;;3.85;;
44248;SDS011;29923;48.718;9.272;2023-02-28T03:36:57;7.63;;;4.03;;
44248;SDS011;29923;48.718;9.272;2023-02-28T03:39:27;8.95;;;3.80;;
44248;SDS011;29923;48.718;9.272;2023-02-28T03:42:00;10.52;;;4.28;;
44248;SDS011;29923;48.718;9.272;2023-02-28T03:44:39;6.88;;;4.20;;
44248;SDS011;29923;48.718;9.272;2023-02-28T03:47:27;8.68;;;4.28;;
44248;SDS011;29923;48.718;9.272;2023-02-28T03:52:27;7.03;;;4.43;;
44248;SDS011;29923;48.718;9.272;2023-02-28T03:54:56;9.10;;;4.00;;
44248;SDS011;29923;48.718;9.272;2023-02-28T03:57:31;12.23;;;4.20;;
44248;SDS011;29923;48.718;9.272;2023-02-28T04:00:02;8.85;;;4.28;;
44248;SDS011;29923;48.718;9.272;2023-02-28T04:02:30;7.55;;;3.90;;
44248;SDS011;29923;48.718;9.272;2023-02-28T04:04:56;7.80;;;5.28;;
44248;SDS011;29923;48.718;9.272;2023-02-28T04:07:21;8.10;;;4.63;;
44248;SDS011;29923;48.718;9.272;2023-02-28T04:09:47;9.13;;;4.65;;
44248;SDS011;29923;48.718;9.272;2023-02-28T04:12:12;7.97;;;4.78;;
44248;SDS011;29923;48.718;9.272;2023-02-28T04:14:38;8.27;;;4.72;;
44248;SDS011;29923;48.718;9.272;2023-02-28T04:17:03;7.40;;;3.97;;
44248;SDS011;29923;48.718;9.272;2023-02-28T04:19:28;10.90;;;5.03;;
44248;SDS011;29923;48.718;9.272;2023-02-28T04:21:54;9.02;;;4.55;;
44248;SDS011;29923;48.718;9.272;2023-02-28T04:24:23;10.90;;;5.10;;
44248;SDS011;29923;48.718;9.272;2023-02-28T04:26:51;11.82;;;5.30;;
44248;SDS011;29923;48.718;9.272;2023-02-28T04:29:19;8.85;;;4.72;;
44248;SDS011;29923;48.718;9.272;2023-02-28T04:31:45;12.15;;;5.45;;
44248;SDS011;29923;48.718;9.272;2023-02-28T04:34:11;7.57;;;4.85;;
44248;SDS011;29923;48.718;9.272;2023-02-28T04:36:36;11.15;;;5.80;;
44248;SDS011;29923;48.718;9.272;2023-02-28T04:39:02;8.85;;;4.68;;
44248;SDS011;29923;48.718;9.272;2023-02-28T04:41:29;8.32;;;5.38;;
44248;SDS011;29923;48.718;9.272;2023-02-28T04:43:54;10.98;;;5.25;;
44248;SDS011;29923;48.718;9.272;2023-02-28T04:46:21;8.52;;;5.38;;
44248;SDS011;29923;48.718;9.272;2023-02-28T04:48:46;11.07;;;6.15;;
44248;SDS011;29923;48.718;9.272;2023-02-28T04:51:13;11.55;;;5.40;;
44248;SDS011;29923;48.718;9.272;2023-02-28T04:53:39;11.38;;;6.55;;
44248;SDS011;29923;48.718;9.272;2023-02-28T04:56:06;13.65;;;4.95;;
44248;SDS011;29923;48.718;9.272;2023-02-28T04:58:32;10.25;;;5.43;;
44248;SDS011;29923;48.718;9.272;2023-02-28T05:01:01;7.57;;;4.60;;
44248;SDS011;29923;48.718;9.272;2023-02-28T05:03:37;11.07;;;5.30;;
44248;SDS011;29923;48.718;9.272;2023-02-28T05:06:06;13.48;;;5.88;;
44248;SDS011;29923;48.718;9.272;2023-02-28T05:08:32;11.07;;;5.50;;
44248;SDS011;29923;48.718;9.272;2023-02-28T05:10:58;12.07;;;6.22;;
44248;SDS011;29923;48.718;9.272;2023-02-28T05:13:25;8.77;;;5.05;;
44248;SDS011;29923;48.718;9.272;2023-02-28T05:15:50;11.70;;;7.03;;
44248;SDS011;29923;48.718;9.272;2023-02-28T05:18:16;10.13;;;5.60;;
44248;SDS011;29923;48.718;9.272;2023-02-28T05:20:41;10.18;;;5.43;;
44248;SDS011;29923;48.718;9.272;2023-02-28T05:23:08;10.10;;;4.93;;
44248;SDS011;29923;48.718;9.272;2023-02-28T05:25:33;10.00;;;4.82;;
44248;SDS011;29923;48.718;9.272;2023-02-28T05:27:59;14.00;;;5.70;;
44248;SDS011;29923;48.718;9.272;2023-02-28T05:30:24;12.95;;;5.90;;
44248;SDS011;29923;48.718;9.272;2023-02-28T05:32:50;13.10;;;6.05;;
44248;SDS011;29923;48.718;9.272;2023-02-28T05:35:16;15.07;;;5.30;;
44248;SDS011;29923;48.718;9.272;2023-02-28T05:37:41;31.50;;;16.75;;
44248;SDS011;29923;48.718;9.272;2023-02-28T05:40:07;9.15;;;5.68;;
44248;SDS011;29923;48.718;9.272;2023-02-28T05:42:36;9.80;;;6.15;;
44248;SDS011;29923;48.718;9.272;2023-02-28T05:45:01;9.30;;;5.88;;
44248;SDS011;29923;48.718;9.272;2023-02-28T05:47:26;10.27;;;5.75;;
44248;SDS011;29923;48.718;9.272;2023-02-28T05:49:52;9.75;;;5.90;;
44248;SDS011;29923;48.718;9.272;2023-02-28T05:52:17;11.65;;;5.75;;
44248;SDS011;29923;48.718;9.272;2023-02-28T05:54:42;8.80;;;5.22;;
44248;SDS011;29923;48.718;9.272;2023-02-28T05:57:08;11.15;;;6.68;;
44248;SDS011;29923;48.718;9.272;2023-02-28T05:59:33;11.32;;;6.43;;
44248;SDS011;29923;48.718;9.272;2023-02-28T06:01:58;10.07;;;5.97;;
44248;SDS011;29923;48.718;9.272;2023-02-28T06:04:24;16.38;;;6.25;;
44248;SDS011;29923;48.718;9.272;2023-02-28T06:06:49;12.85;;;5.80;;
44248;SDS011;29923;48.718;9.272;2023-02-28T06:09:15;9.63;;;6.55;;
44248;SDS011;29923;48.718;9.272;2023-02-28T06:11:42;10.00;;;6.35;;
44248;SDS011;29923;48.718;9.272;2023-02-28T06:14:09;10.63;;;6.65;;
44248;SDS011;29923;48.718;9.272;2023-02-28T06:16:39;25.90;;;15.98;;
44248;SDS011;29923;48.718;9.272;2023-02-28T06:19:05;12.93;;;6.47;;
44248;SDS011;29923;48.718;9.272;2023-02-28T06:21:30;15.52;;;7.03;;
44248;SDS011;29923;48.718;9.272;2023-02-28T06:23:56;10.80;;;6.70;;
44248;SDS011;29923;48.718;9.272;2023-02-28T06:26:22;9.55;;;6.03;;
44248;SDS011;29923;48.718;9.272;2023-02-28T06:28:48;10.93;;;6.80;;
44248;SDS011;29923;48.718;9.272;2023-02-28T06:31:15;13.82;;;7.97;;
44248;SDS011;29923;48.718;9.272;2023-02-28T06:33:41;11.32;;;6.60;;
44248;SDS011;29923;48.718;9.272;2023-02-28T06:36:07;15.32;;;6.85;;
44248;SDS011;29923;48.718;9.272;2023-02-28T06:38:34;16.45;;;8.05;;
44248;SDS011;29923;48.718;9.272;2023-02-28T06:40:59;13.23;;;7.35;;
44248;SDS011;29923;48.718;9.272;2023-02-28T06:43:27;11.80;;;6.55;;
44248;SDS011;29923;48.718;9.272;2023-02-28T06:45:54;14.27;;;7.40;;
44248;SDS011;29923;48.718;9.272;2023-02-28T06:48:20;10.57;;;7.55;;
44248;SDS011;29923;48.718;9.272;2023-02-28T06:50:45;14.93;;;7.82;;
44248;SDS011;29923;48.718;9.272;2023-02-28T06:53:11;11.98;;;6.63;;
44248;SDS011;29923;48.718;9.272;2023-02-28T06:55:37;11.52;;;7.18;;
44248;SDS011;29923;48.718;9.272;2023-02-28T06:58:03;11.48;;;6.57;;
44248;SDS011;29923;48.718;9.272;2023-02-28T07:00:38;10.75;;;7.32;;
44248;SDS011;29923;48.718;9.272;2023-02-28T07:03:03;13.93;;;8.50;;
44248;SDS011;29923;48.718;9.272;2023-02-28T07:05:29;13.50;;;8.88;;
44248;SDS011;29923;48.718;9.272;2023-02-28T07:07:54;14.95;;;8.77;;
44248;SDS011;29923;48.718;9.272;2023-02-28T07:10:20;12.82;;;7.93;;
44248;SDS011;29923;48.718;9.272;2023-02-28T07:12:45;14.32;;;7.90;;
44248;SDS011;29923;48.718;9.272;2023-02-28T07:15:10;14.13;;;7.72;;
44248;SDS011;29923;48.718;9.272;2023-02-28T07:17:36;14.00;;;8.25;;
44248;SDS011;29923;48.718;9.272;2023-02-28T07:20:01;17.40;;;7.05;;
44248;SDS011;29923;48.718;9.272;2023-02-28T07:22:29;11.98;;;7.65;;
44248;SDS011;29923;48.718;9.272;2023-02-28T07:24:54;16.83;;;8.07;;
44248;SDS011;29923;48.718;9.272;2023-02-28T07:27:20;13.32;;;8.80;;
44248;SDS011;29923;48.718;9.272;2023-02-28T07:29:49;14.13;;;8.75;;
44248;SDS011;29923;48.718;9.272;2023-02-28T07:32:15;13.93;;;7.95;;
44248;SDS011;29923;48.718;9.272;2023-02-28T07:34:40;16.27;;;8.18;;
44248;SDS011;29923;48.718;9.272;2023-02-28T07:37:05;15.02;;;8.35;;
44248;SDS011;29923;48.718;9.272;2023-02-28T07:39:31;14.27;;;8.48;;
44248;SDS011;29923;48.718;9.272;2023-02-28T07:41:56;11.90;;;7.43;;
44248;SDS011;29923;48.718;9.272;2023-02-28T07:44:21;16.85;;;7.45;;
44248;SDS011;29923;48.718;9.272;2023-02-28T07:46:47;14.95;;;8.07;;
44248;SDS011;29923;48.718;9.272;2023-02-28T07:49:12;13.60;;;8.45;;
44248;SDS011;29923;48.718;9.272;2023-02-28T07:51:37;16.23;;;8.57;;
44248;SDS011;29923;48.718;9.272;2023-02-28T07:54:03;12.20;;;8.40;;
44248;SDS011;29923;48.718;9.272;2023-02-28T07:56:28;13.13;;;8.88;;
44248;SDS011;29923;48.718;9.272;2023-02-28T07:58:54;18.23;;;12.52;;
44248;SDS011;29923;48.718;9.272;2023-02-28T08:01:19;14.07;;;7.55;;
44248;SDS011;29923;48.718;9.272;2023-02-28T08:03:45;17.27;;;8.32;;
44248;SDS011;29923;48.718;9.272;2023-02-28T08:06:15;15.10;;;10.30;;
44248;SDS011;29923;48.718;9.272;2023-02-28T08:08:44;15.35;;;9.68;;
44248;SDS011;29923;48.718;9.272;2023-02-28T08:11:10;16.00;;;8.98;;
44248;SDS011;29923;48.718;9.272;2023-02-28T08:13:35;16.15;;;9.07;;
44248;SDS011;29923;48.718;9.272;2023-02-28T08:16:01;15.55;;;8.73;;
44248;SDS011;29923;48.718;9.272;2023-02-28T08:18:27;13.80;;;8.38;;
44248;SDS011;29923;48.718;9.272;2023-02-28T08:20:52;13.48;;;8.60;;
44248;SDS011;29923;48.718;9.272;2023-02-28T08:23:17;15.05;;;10.00;;
44248;SDS011;29923;48.718;9.272;2023-02-28T08:25:43;17.75;;;8.82;;
44248;SDS011;29923;48.718;9.272;2023-02-28T08:28:08;13.88;;;8.68;;
44248;SDS011;29923;48.718;9.272;2023-02-28T08:30:33;17.48;;;9.27;;
44248;SDS011;29923;48.718;9.272;2023-02-28T08:32:59;16.40;;;9.30;;
44248;SDS011;29923;48.718;9.272;2023-02-28T08:35:24;15.90;;;9.57;;
44248;SDS011;29923;48.718;9.272;2023-02-28T08:37:50;15.18;;;8.40;;
44248;SDS011;29923;48.718;9.272;2023-02-28T08:40:16;18.17;;;9.02;;
44248;SDS011;29923;48.718;9.272;2023-02-28T08:42:46;15.00;;;8.30;;
44248;SDS011;29923;48.718;9.272;2023-02-28T08:45:13;15.98;;;9.15;;
44248;SDS011;29923;48.718;9.272;2023-02-28T08:47:38;15.70;;;9.43;;
44248;SDS011;29923;48.718;9.272;2023-02-28T08:50:04;17.52;;;8.88;;
44248;SDS011;29923;48.718;9.272;2023-02-28T08:52:30;16.75;;;9.63;;
44248;SDS011;29923;48.718;9.272;2023-02-28T08:54:55;14.02;;;8.80;;
44248;SDS011;29923;48.718;9.272;2023-02-28T08:57:20;13.65;;;8.57;;
44248;SDS011;29923;48.718;9.272;2023-02-28T08:59:46;17.25;;;9.68;;
44248;SDS011;29923;48.718;9.272;2023-02-28T09:02:12;51.72;;;33.00;;
44248;SDS011;29923;48.718;9.272;2023-02-28T09:04:39;19.65;;;11.30;;
44248;SDS011;29923;48.718;9.272;2023-02-28T09:07:04;16.60;;;8.77;;
44248;SDS011;29923;48.718;9.272;2023-02-28T09:09:29;14.68;;;8.95;;
44248;SDS011;29923;48.718;9.272;2023-02-28T09:11:55;12.68;;;8.50;;
44248;SDS011;29923;48.718;9.272;2023-02-28T09:14:21;14.40;;;9.57;;
44248;SDS011;29923;48.718;9.272;2023-02-28T09:16:55;17.08;;;9.50;;
44248;SDS011;29923;48.718;9.272;2023-02-28T09:19:21;16.48;;;10.57;;
44248;SDS011;29923;48.718;9.272;2023-02-28T09:21:47;15.50;;;10.02;;
44248;SDS011;29923;48.718;9.272;2023-02-28T09:24:12;18.88;;;9.48;;
44248;SDS011;29923;48.718;9.272;2023-02-28T09:26:40;14.60;;;10.02;;
44248;SDS011;29923;48.718;9.272;2023-02-28T09:29:05;16.55;;;9.60;;
44248;SDS011;29923;48.718;9.272;2023-02-28T09:31:31;15.20;;;9.07;;
44248;SDS011;29923;48.718;9.272;2023-02-28T09:33:58;14.45;;;8.80;;
44248;SDS011;29923;48.718;9.272;2023-02-28T09:36:24;19.55;;;9.98;;
44248;SDS011;29923;48.718;9.272;2023-02-28T09:38:53;13.50;;;8.50;;
44248;SDS011;29923;48.718;9.272;2023-02-28T09:41:22;17.27;;;9.68;;
44248;SDS011;29923;48.718;9.272;2023-02-28T09:43:52;14.35;;;9.50;;
44248;SDS011;29923;48.718;9.272;2023-02-28T09:48:58;16.27;;;9.00;;
44248;SDS011;29923;48.718;9.272;2023-02-28T09:51:48;15.45;;;9.57;;
44248;SDS011;29923;48.718;9.272;2023-02-28T09:54:21;14.02;;;9.05;;
44248;SDS011;29923;48.718;9.272;2023-02-28T09:56:50;14.95;;;8.90;;
44248;SDS011;29923;48.718;9.272;2023-02-28T10:02:34;18.63;;;9.80;;
44248;SDS011;29923;48.718;9.272;2023-02-28T10:10:27;15.40;;;9.10;;
44248;SDS011;29923;48.718;9.272;2023-02-28T10:12:55;15.98;;;8.73;;
44248;SDS011;29923;48.718;9.272;2023-02-28T10:15:23;16.10;;;8.77;;
44248;SDS011;29923;48.718;9.272;2023-02-28T10:17:52;18.15;;;9.00;;
44248;SDS011;29923;48.718;9.272;2023-02-28T10:20:20;22.73;;;9.05;;
44248;SDS011;29923;48.718;9.272;2023-02-28T10:25:36;19.77;;;9.15;;
44248;SDS011;29923;48.718;9.272;2023-02-28T10:28:12;18.55;;;9.77;;
44248;SDS011;29923;48.718;9.272;2023-02-28T10:30:40;18.63;;;8.82;;
44248;SDS011;29923;48.718;9.272;2023-02-28T10:33:13;14.05;;;8.55;;
44248;SDS011;29923;48.718;9.272;2023-02-28T10:35:43;15.52;;;9.50;;
44248;SDS011;29923;48.718;9.272;2023-02-28T10:38:15;16.30;;;9.20;;
44248;SDS011;29923;48.718;9.272;2023-02-28T10:40:44;17.00;;;10.00;;
44248;SDS011;29923;48.718;9.272;2023-02-28T10:45:37;19.17;;;9.13;;
44248;SDS011;29923;48.718;9.272;2023-02-28T10:48:26;18.92;;;10.00;;
44248;SDS011;29923;48.718;9.272;2023-02-28T10:50:58;14.88;;;8.82;;
44248;SDS011;29923;48.718;9.272;2023-02-28T10:56:02;21.10;;;9.25;;
44248;SDS011;29923;48.718;9.272;2023-02-28T10:58:42;19.75;;;12.73;;
44248;SDS011;29923;48.718;9.272;2023-02-28T11:01:14;19.08;;;9.98;;
44248;SDS011;29923;48.718;9.272;2023-02-28T11:03:40;21.50;;;9.85;;
44248;SDS011;29923;48.718;9.272;2023-02-28T11:06:07;15.48;;;9.00;;
44248;SDS011;29923;48.718;9.272;2023-02-28T11:08:43;16.77;;;9.85;;
44248;SDS011;29923;48.718;9.272;2023-02-28T11:11:10;18.45;;;9.88;;
44248;SDS011;29923;48.718;9.272;2023-02-28T11:13:35;16.42;;;9.43;;
44248;SDS011;29923;48.718;9.272;2023-02-28T11:16:05;16.42;;;8.77;;
44248;SDS011;29923;48.718;9.272;2023-02-28T11:18:42;22.38;;;9.48;;
44248;SDS011;29923;48.718;9.272;2023-02-28T11:21:10;15.05;;;9.35;;
44248;SDS011;29923;48.718;9.272;2023-02-28T11:23:42;17.75;;;9.90;;
44248;SDS011;29923;48.718;9.272;2023-02-28T11:26:08;13.57;;;8.85;;
44248;SDS011;29923;48.718;9.272;2023-02-28T11:28:37;22.83;;;9.50;;
44248;SDS011;29923;48.718;9.272;2023-02-28T11:36:08;17.52;;;9.48;;
44248;SDS011;29923;48.718;9.272;2023-02-28T11:38:36;17.70;;;9.50;;
44248;SDS011;29923;48.718;9.272;2023-02-28T11:49:18;17.08;;;10.45;;
44248;SDS011;29923;48.718;9.272;2023-02-28T11:51:48;14.75;;;9.15;;
44248;SDS011;29923;48.718;9.272;2023-02-28T11:54:27;15.00;;;9.73;;
44248;SDS011;29923;48.718;9.272;2023-02-28T12:17:25;13.23;;;8.60;;
44248;SDS011;29923;48.718;9.272;2023-02-28T12:22:37;12.38;;;8.25;;
44248;SDS011;29923;48.718;9.272;2023-02-28T12:27:57;13.98;;;8.93;;
44248;SDS011;29923;48.718;9.272;2023-02-28T12:30:30;18.08;;;8.65;;
44248;SDS011;29923;48.718;9.272;2023-02-28T12:33:04;14.55;;;8.82;;
44248;SDS011;29923;48.718;9.272;2023-02-28T12:35:41;14.50;;;8.65;;
44248;SDS011;29923;48.718;9.272;2023-02-28T12:38:12;17.33;;;9.27;;
44248;SDS011;29923;48.718;9.272;2023-02-28T12:41:04;16.08;;;9.20;;
44248;SDS011;29923;48.718;9.272;2023-02-28T12:43:33;14.55;;;9.30;;
44248;SDS011;29923;48.718;9.272;2023-02-28T12:46:24;15.75;;;8.85;;
44248;SDS011;29923;48.718;9.272;2023-02-28T12:49:12;14.27;;;8.35;;
44248;SDS011;29923;48.718;9.272;2023-02-28T12:51:44;14.02;;;8.75;;
44248;SDS011;29923;48.718;9.272;2023-02-28T13:00:21;15.25;;;9.95;;
44248;SDS011;29923;48.718;9.272;2023-02-28T13:03:02;16.58;;;9.73;;
44248;SDS011;29923;48.718;9.272;2023-02-28T13:09:07;13.68;;;9.45;;
44248;SDS011;29923;48.718;9.272;2023-02-28T13:11:39;15.82;;;9.85;;
44248;SDS011;29923;48.718;9.272;2023-02-28T13:14:22;15.35;;;9.27;;
44248;SDS011;29923;48.718;9.272;2023-02-28T13:19:37;12.00;;;8.48;;
44248;SDS011;29923;48.718;9.272;2023-02-28T13:22:16;15.43;;;10.95;;
44248;SDS011;29923;48.718;9.272;2023-02-28T13:24:47;20.30;;;10.70;;
44248;SDS011;29923;48.718;9.272;2023-02-28T13:29:40;13.80;;;9.40;;
44248;SDS011;29923;48.718;9.272;2023-02-28T13:32:25;15.40;;;8.75;;
44248;SDS011;29923;48.718;9.272;2023-02-28T13:42:55;15.23;;;9.38;;
44248;SDS011;29923;48.718;9.272;2023-02-28T13:47:59;14.40;;;8.70;;
44248;SDS011;29923;48.718;9.272;2023-02-28T13:55:29;13.85;;;9.82;;
44248;SDS011;29923;48.718;9.272;2023-02-28T13:58:21;13.98;;;10.00;;
44248;SDS011;29923;48.718;9.272;2023-02-28T14:03:50;16.15;;;9.15;;
44248;SDS011;29923;48.718;9.272;2023-02-28T14:06:22;14.98;;;9.00;;
44248;SDS011;29923;48.718;9.272;2023-02-28T14:11:32;14.80;;;9.85;;
44248;SDS011;29923;48.718;9.272;2023-02-28T14:14:00;17.20;;;9.73;;
44248;SDS011;29923;48.718;9.272;2023-02-28T14:16:27;13.23;;;9.38;;
44248;SDS011;29923;48.718;9.272;2023-02-28T14:19:03;15.38;;;9.20;;
44248;SDS011;29923;48.718;9.272;2023-02-28T14:21:38;15.73;;;10.40;;
44248;SDS011;29923;48.718;9.272;2023-02-28T14:27:01;12.75;;;8.65;;
44248;SDS011;29923;48.718;9.272;2023-02-28T14:36:20;12.40;;;7.88;;
44248;SDS011;29923;48.718;9.272;2023-02-28T14:38:20;12.25;;;9.30;;
44248;SDS011;29923;48.718;9.272;2023-02-28T14:40:49;14.75;;;8.82;;
44248;SDS011;29923;48.718;9.272;2023-02-28T14:43:19;13.38;;;8.57;;
44248;SDS011;29923;48.718;9.272;2023-02-28T14:45:49;14.55;;;8.55;;
44248;SDS011;29923;48.718;9.272;2023-02-28T14:48:16;14.98;;;9.77;;
44248;SDS011;29923;48.718;9.272;2023-02-28T14:50:52;14.63;;;9.43;;
44248;SDS011;29923;48.718;9.272;2023-02-28T14:53:20;15.82;;;11.35;;
44248;SDS011;29923;48.718;9.272;2023-02-28T14:55:47;17.88;;;9.30;;
44248;SDS011;29923;48.718;9.272;2023-02-28T15:00:56;15.50;;;8.90;;
44248;SDS011;29923;48.718;9.272;2023-02-28T15:03:27;15.98;;;8.20;;
44248;SDS011;29923;48.718;9.272;2023-02-28T15:05:55;18.23;;;9.15;;
44248;SDS011;29923;48.718;9.272;2023-02-28T15:08:31;19.08;;;9.60;;
44248;SDS011;29923;48.718;9.272;2023-02-28T15:11:07;16.52;;;9.40;;
44248;SDS011;29923;48.718;9.272;2023-02-28T15:13:36;13.85;;;9.70;;
44248;SDS011;29923;48.718;9.272;2023-02-28T15:16:03;14.27;;;8.10;;
44248;SDS011;29923;48.718;9.272;2023-02-28T15:21:22;13.48;;;8.60;;
44248;SDS011;29923;48.718;9.272;2023-02-28T15:23:59;12.45;;;8.30;;
44248;SDS011;29923;48.718;9.272;2023-02-28T15:26:30;13.85;;;9.02;;
44248;SDS011;29923;48.718;9.272;2023-02-28T15:28:59;15.23;;;9.15;;
44248;SDS011;29923;48.718;9.272;2023-02-28T15:31:48;13.25;;;9.20;;
44248;SDS011;29923;48.718;9.272;2023-02-28T15:34:18;14.88;;;8.70;;
44248;SDS011;29923;48.718;9.272;2023-02-28T15:36:45;13.93;;;8.70;;
44248;SDS011;29923;48.718;9.272;2023-02-28T15:39:21;14.45;;;8.55;;
44248;SDS011;29923;48.718;9.272;2023-02-28T15:41:48;16.70;;;9.43;;
44248;SDS011;29923;48.718;9.272;2023-02-28T15:44:14;15.23;;;8.60;;
44248;SDS011;29923;48.718;9.272;2023-02-28T15:46:42;15.23;;;8.93;;
44248;SDS011;29923;48.718;9.272;2023-02-28T15:49:16;14.50;;;8.02;;
44248;SDS011;29923;48.718;9.272;2023-02-28T15:51:43;17.15;;;8.63;;
44248;SDS011;29923;48.718;9.272;2023-02-28T15:54:12;11.73;;;8.05;;
44248;SDS011;29923;48.718;9.272;2023-02-28T15:56:43;14.45;;;8.82;;
44248;SDS011;29923;48.718;9.272;2023-02-28T15:59:14;12.52;;;9.18;;
44248;SDS011;29923;48.718;9.272;2023-02-28T16:01:42;16.65;;;9.30;;
44248;SDS011;29923;48.718;9.272;2023-02-28T16:04:14;13.02;;;8.55;;
44248;SDS011;29923;48.718;9.272;2023-02-28T16:06:41;16.80;;;9.68;;
44248;SDS011;29923;48.718;9.272;2023-02-28T16:09:12;17.08;;;8.63;;
44248;SDS011;29923;48.718;9.272;2023-02-28T16:11:42;13.38;;;9.13;;
44248;SDS011;29923;48.718;9.272;2023-02-28T16:14:25;13.65;;;9.07;;
44248;SDS011;29923;48.718;9.272;2023-02-28T16:17:05;17.15;;;9.57;;
44248;SDS011;29923;48.718;9.272;2023-02-28T16:19:34;16.52;;;9.27;;
44248;SDS011;29923;48.718;9.272;2023-02-28T16:21:59;16.75;;;9.05;;
44248;SDS011;29923;48.718;9.272;2023-02-28T16:24:25;15.93;;;9.75;;
44248;SDS011;29923;48.718;9.272;2023-02-28T16:26:51;15.35;;;9.20;;
44248;SDS011;29923;48.718;9.272;2023-02-28T16:29:23;14.35;;;9.40;;
44248;SDS011;29923;48.718;9.272;2023-02-28T16:31:50;23.88;;;14.90;;
44248;SDS011;29923;48.718;9.272;2023-02-28T16:34:16;15.35;;;9.55;;
44248;SDS011;29923;48.718;9.272;2023-02-28T16:36:41;13.00;;;8.60;;
44248;SDS011;29923;48.718;9.272;2023-02-28T16:39:11;15.27;;;9.20;;
44248;SDS011;29923;48.718;9.272;2023-02-28T16:41:37;18.25;;;9.75;;
44248;SDS011;29923;48.718;9.272;2023-02-28T16:44:02;16.70;;;10.00;;
44248;SDS011;29923;48.718;9.272;2023-02-28T16:46:53;14.50;;;9.50;;
44248;SDS011;29923;48.718;9.272;2023-02-28T16:49:19;23.48;;;9.43;;
44248;SDS011;29923;48.718;9.272;2023-02-28T16:51:46;17.88;;;9.68;;
44248;SDS011;29923;48.718;9.272;2023-02-28T16:54:14;18.13;;;9.88;;
44248;SDS011;29923;48.718;9.272;2023-02-28T16:56:41;14.82;;;9.98;;
44248;SDS011;29923;48.718;9.272;2023-02-28T16:59:09;16.30;;;10.55;;
44248;SDS011;29923;48.718;9.272;2023-02-28T17:01:35;16.58;;;9.88;;
44248;SDS011;29923;48.718;9.272;2023-02-28T17:04:00;14.55;;;9.98;;
44248;SDS011;29923;48.718;9.272;2023-02-28T17:06:27;17.60;;;11.32;;
44248;SDS011;29923;48.718;9.272;2023-02-28T17:08:53;18.63;;;10.10;;
44248;SDS011;29923;48.718;9.272;2023-02-28T17:11:19;14.48;;;9.65;;
44248;SDS011;29923;48.718;9.272;2023-02-28T17:13:45;17.48;;;10.13;;
44248;SDS011;29923;48.718;9.272;2023-02-28T17:16:17;25.23;;;12.10;;